sensor_id;sensor_type;location;lat;lon;timestamp;P1;durP1;ratioP1;P2;durP2;ratioP2
20894;SDS011;10607;42.066;24.742;2023-05-07T00:01:59;5.97;;;4.40;;
20894;SDS011;10607;42.066;24.742;2023-05-07T00:04:24;9.30;;;4.78;;
20894;SDS011;10607;42.066;24.742;2023-05-07T00:06:49;5.53;;;4.38;;
20894;SDS011;10607;42.066;24.742;2023-05-07T00:09:14;5.97;;;4.70;;
20894;SDS011;10607;42.066;24.742;2023-05-07T00:11:41;5.93;;;4.40;;
20894;SDS011;10607;42.066;24.742;2023-05-07T00:14:06;6.47;;;4.93;;
20894;SDS011;10607;42.066;24.742;2023-05-07T00:16:32;8.05;;;4.50;;
20894;SDS011;10607;42.066;24.742;2023-05-07T00:18:57;8.45;;;4.90;;
20894;SDS011;10607;42.066;24.742;2023-05-07T00:21:22;6.45;;;4.80;;
20894;SDS011;10607;42.066;24.742;2023-05-07T00:23:48;8.27;;;4.53;;
20894;SDS011;10607;42.066;24.742;2023-05-07T00:26:13;6.82;;;4.65;;
20894;SDS011;10607;42.066;24.742;2023-05-07T00:28:38;6.22;;;4.47;;
20894;SDS011;10607;42.066;24.742;2023-05-07T00:31:04;6.80;;;4.97;;
20894;SDS011;10607;42.066;24.742;2023-05-07T00:33:29;7.80;;;5.28;;
20894;SDS011;10607;42.066;24.742;2023-05-07T00:35:54;8.00;;;5.32;;
20894;SDS011;10607;42.066;24.742;2023-05-07T00:38:20;7.93;;;5.28;;
20894;SDS011;10607;42.066;24.742;2023-05-07T00:40:45;11.18;;;5.70;;
20894;SDS011;10607;42.066;24.742;2023-05-07T00:43:11;8.40;;;5.43;;
20894;SDS011;10607;42.066;24.742;2023-05-07T00:45:37;10.95;;;5.70;;
20894;SDS011;10607;42.066;24.742;2023-05-07T00:48:03;9.77;;;6.20;;
20894;SDS011;10607;42.066;24.742;2023-05-07T00:50:28;11.07;;;5.55;;
20894;SDS011;10607;42.066;24.742;2023-05-07T00:52:54;9.85;;;6.00;;
20894;SDS011;10607;42.066;24.742;2023-05-07T00:55:22;15.18;;;5.43;;
20894;SDS011;10607;42.066;24.742;2023-05-07T00:57:48;8.02;;;5.72;;
20894;SDS011;10607;42.066;24.742;2023-05-07T01:00:14;10.30;;;5.97;;
20894;SDS011;10607;42.066;24.742;2023-05-07T01:02:39;6.90;;;5.88;;
20894;SDS011;10607;42.066;24.742;2023-05-07T01:05:05;7.32;;;5.00;;
20894;SDS011;10607;42.066;24.742;2023-05-07T01:07:32;6.38;;;5.55;;
20894;SDS011;10607;42.066;24.742;2023-05-07T01:09:58;10.32;;;5.07;;
20894;SDS011;10607;42.066;24.742;2023-05-07T01:12:24;6.55;;;5.03;;
20894;SDS011;10607;42.066;24.742;2023-05-07T01:14:50;9.90;;;5.25;;
20894;SDS011;10607;42.066;24.742;2023-05-07T01:17:15;6.93;;;4.65;;
20894;SDS011;10607;42.066;24.742;2023-05-07T01:19:41;6.75;;;4.80;;
20894;SDS011;10607;42.066;24.742;2023-05-07T01:22:10;7.35;;;4.97;;
20894;SDS011;10607;42.066;24.742;2023-05-07T01:24:36;9.45;;;4.82;;
20894;SDS011;10607;42.066;24.742;2023-05-07T01:27:01;5.90;;;4.10;;
20894;SDS011;10607;42.066;24.742;2023-05-07T01:29:27;5.88;;;4.53;;
20894;SDS011;10607;42.066;24.742;2023-05-07T01:31:53;5.82;;;4.32;;
20894;SDS011;10607;42.066;24.742;2023-05-07T01:34:19;6.53;;;4.35;;
20894;SDS011;10607;42.066;24.742;2023-05-07T01:36:45;5.03;;;4.50;;
20894;SDS011;10607;42.066;24.742;2023-05-07T01:39:11;5.57;;;4.30;;
20894;SDS011;10607;42.066;24.742;2023-05-07T01:41:37;6.95;;;5.03;;
20894;SDS011;10607;42.066;24.742;2023-05-07T01:44:03;5.60;;;4.85;;
20894;SDS011;10607;42.066;24.742;2023-05-07T01:46:28;5.90;;;4.47;;
20894;SDS011;10607;42.066;24.742;2023-05-07T01:48:54;5.82;;;4.60;;
20894;SDS011;10607;42.066;24.742;2023-05-07T01:51:20;6.57;;;5.07;;
20894;SDS011;10607;42.066;24.742;2023-05-07T01:53:47;7.93;;;4.75;;
20894;SDS011;10607;42.066;24.742;2023-05-07T01:56:15;5.93;;;4.90;;
20894;SDS011;10607;42.066;24.742;2023-05-07T01:58:41;7.38;;;5.30;;
20894;SDS011;10607;42.066;24.742;2023-05-07T02:01:06;6.75;;;5.03;;
20894;SDS011;10607;42.066;24.742;2023-05-07T02:03:31;8.85;;;4.60;;
20894;SDS011;10607;42.066;24.742;2023-05-07T02:05:57;6.78;;;5.57;;
20894;SDS011;10607;42.066;24.742;2023-05-07T02:08:22;8.48;;;5.68;;
20894;SDS011;10607;42.066;24.742;2023-05-07T02:10:47;8.70;;;5.63;;
20894;SDS011;10607;42.066;24.742;2023-05-07T02:13:13;9.95;;;6.32;;
20894;SDS011;10607;42.066;24.742;2023-05-07T02:15:38;9.90;;;6.53;;
20894;SDS011;10607;42.066;24.742;2023-05-07T02:18:04;8.98;;;6.13;;
20894;SDS011;10607;42.066;24.742;2023-05-07T02:20:29;8.93;;;6.88;;
20894;SDS011;10607;42.066;24.742;2023-05-07T02:22:55;12.60;;;6.80;;
20894;SDS011;10607;42.066;24.742;2023-05-07T02:25:20;9.00;;;7.07;;
20894;SDS011;10607;42.066;24.742;2023-05-07T02:27:45;11.52;;;7.25;;
20894;SDS011;10607;42.066;24.742;2023-05-07T02:30:11;11.85;;;7.13;;
20894;SDS011;10607;42.066;24.742;2023-05-07T02:32:36;11.80;;;7.45;;
20894;SDS011;10607;42.066;24.742;2023-05-07T02:35:02;11.48;;;8.20;;
20894;SDS011;10607;42.066;24.742;2023-05-07T02:37:27;10.00;;;7.50;;
20894;SDS011;10607;42.066;24.742;2023-05-07T02:39:52;13.30;;;7.95;;
20894;SDS011;10607;42.066;24.742;2023-05-07T02:42:17;13.07;;;8.15;;
20894;SDS011;10607;42.066;24.742;2023-05-07T02:44:43;15.07;;;8.00;;
20894;SDS011;10607;42.066;24.742;2023-05-07T02:47:08;14.15;;;8.18;;
20894;SDS011;10607;42.066;24.742;2023-05-07T02:49:34;13.80;;;8.40;;
20894;SDS011;10607;42.066;24.742;2023-05-07T02:51:59;16.15;;;8.48;;
20894;SDS011;10607;42.066;24.742;2023-05-07T02:54:25;14.65;;;8.80;;
20894;SDS011;10607;42.066;24.742;2023-05-07T02:56:50;13.30;;;8.98;;
20894;SDS011;10607;42.066;24.742;2023-05-07T02:59:15;12.27;;;8.02;;
20894;SDS011;10607;42.066;24.742;2023-05-07T03:01:41;12.52;;;9.00;;
20894;SDS011;10607;42.066;24.742;2023-05-07T03:04:08;11.43;;;8.23;;
20894;SDS011;10607;42.066;24.742;2023-05-07T03:06:34;10.40;;;8.15;;
20894;SDS011;10607;42.066;24.742;2023-05-07T03:08:59;12.27;;;7.78;;
20894;SDS011;10607;42.066;24.742;2023-05-07T03:11:24;11.13;;;6.85;;
20894;SDS011;10607;42.066;24.742;2023-05-07T03:13:50;8.98;;;7.25;;
20894;SDS011;10607;42.066;24.742;2023-05-07T03:16:15;11.82;;;7.53;;
20894;SDS011;10607;42.066;24.742;2023-05-07T03:27:24;10.40;;;7.47;;
20894;SDS011;10607;42.066;24.742;2023-05-07T03:29:50;14.88;;;8.73;;
20894;SDS011;10607;42.066;24.742;2023-05-07T03:32:15;9.60;;;7.82;;
20894;SDS011;10607;42.066;24.742;2023-05-07T03:34:40;13.57;;;8.40;;
20894;SDS011;10607;42.066;24.742;2023-05-07T03:37:06;10.40;;;7.78;;
20894;SDS011;10607;42.066;24.742;2023-05-07T03:39:31;9.38;;;8.30;;
20894;SDS011;10607;42.066;24.742;2023-05-07T03:41:57;13.77;;;8.57;;
20894;SDS011;10607;42.066;24.742;2023-05-07T03:44:22;12.52;;;7.88;;
20894;SDS011;10607;42.066;24.742;2023-05-07T03:46:47;11.75;;;8.65;;
20894;SDS011;10607;42.066;24.742;2023-05-07T03:49:13;16.42;;;9.63;;
20894;SDS011;10607;42.066;24.742;2023-05-07T03:51:38;10.23;;;8.48;;
20894;SDS011;10607;42.066;24.742;2023-05-07T03:54:03;17.38;;;9.20;;
20894;SDS011;10607;42.066;24.742;2023-05-07T03:56:29;13.80;;;9.00;;
20894;SDS011;10607;42.066;24.742;2023-05-07T03:58:54;9.57;;;8.32;;
20894;SDS011;10607;42.066;24.742;2023-05-07T04:01:19;9.55;;;7.90;;
20894;SDS011;10607;42.066;24.742;2023-05-07T04:03:45;14.38;;;7.60;;
20894;SDS011;10607;42.066;24.742;2023-05-07T04:06:10;9.65;;;7.95;;
20894;SDS011;10607;42.066;24.742;2023-05-07T04:08:35;10.20;;;7.18;;
20894;SDS011;10607;42.066;24.742;2023-05-07T04:11:01;11.30;;;7.15;;
20894;SDS011;10607;42.066;24.742;2023-05-07T04:13:26;10.35;;;7.05;;
20894;SDS011;10607;42.066;24.742;2023-05-07T04:15:52;7.60;;;6.10;;
20894;SDS011;10607;42.066;24.742;2023-05-07T04:18:17;18.00;;;6.85;;
20894;SDS011;10607;42.066;24.742;2023-05-07T04:20:43;8.70;;;6.82;;
20894;SDS011;10607;42.066;24.742;2023-05-07T04:23:08;12.80;;;6.93;;
20894;SDS011;10607;42.066;24.742;2023-05-07T04:25:33;12.32;;;6.32;;
20894;SDS011;10607;42.066;24.742;2023-05-07T04:27:59;8.30;;;6.68;;
20894;SDS011;10607;42.066;24.742;2023-05-07T04:30:24;9.68;;;6.60;;
20894;SDS011;10607;42.066;24.742;2023-05-07T04:32:50;8.57;;;6.38;;
20894;SDS011;10607;42.066;24.742;2023-05-07T04:35:15;8.40;;;5.70;;
20894;SDS011;10607;42.066;24.742;2023-05-07T04:37:40;10.38;;;6.45;;
20894;SDS011;10607;42.066;24.742;2023-05-07T04:40:06;8.50;;;6.43;;
20894;SDS011;10607;42.066;24.742;2023-05-07T04:42:32;9.10;;;6.13;;
20894;SDS011;10607;42.066;24.742;2023-05-07T04:44:57;9.15;;;6.47;;
20894;SDS011;10607;42.066;24.742;2023-05-07T04:47:22;7.63;;;6.72;;
20894;SDS011;10607;42.066;24.742;2023-05-07T04:49:48;8.85;;;7.95;;
20894;SDS011;10607;42.066;24.742;2023-05-07T04:52:13;9.60;;;6.68;;
20894;SDS011;10607;42.066;24.742;2023-05-07T04:54:38;10.85;;;7.03;;
20894;SDS011;10607;42.066;24.742;2023-05-07T04:57:04;11.13;;;7.57;;
20894;SDS011;10607;42.066;24.742;2023-05-07T04:59:29;13.18;;;7.63;;
20894;SDS011;10607;42.066;24.742;2023-05-07T05:01:55;15.95;;;8.43;;
20894;SDS011;10607;42.066;24.742;2023-05-07T05:04:20;10.13;;;7.60;;
20894;SDS011;10607;42.066;24.742;2023-05-07T05:06:45;14.48;;;8.23;;
20894;SDS011;10607;42.066;24.742;2023-05-07T05:09:11;12.38;;;7.72;;
20894;SDS011;10607;42.066;24.742;2023-05-07T05:11:36;10.88;;;7.80;;
20894;SDS011;10607;42.066;24.742;2023-05-07T05:14:01;11.90;;;7.90;;
20894;SDS011;10607;42.066;24.742;2023-05-07T05:16:27;13.63;;;8.82;;
20894;SDS011;10607;42.066;24.742;2023-05-07T05:18:52;10.40;;;7.50;;
20894;SDS011;10607;42.066;24.742;2023-05-07T05:21:19;9.70;;;7.75;;
20894;SDS011;10607;42.066;24.742;2023-05-07T05:23:44;11.90;;;7.90;;
20894;SDS011;10607;42.066;24.742;2023-05-07T05:26:10;13.82;;;7.95;;
20894;SDS011;10607;42.066;24.742;2023-05-07T05:28:35;12.23;;;7.22;;
20894;SDS011;10607;42.066;24.742;2023-05-07T05:31:01;14.27;;;7.60;;
20894;SDS011;10607;42.066;24.742;2023-05-07T05:33:26;10.23;;;7.75;;
20894;SDS011;10607;42.066;24.742;2023-05-07T05:35:53;10.27;;;7.72;;
20894;SDS011;10607;42.066;24.742;2023-05-07T05:38:18;9.75;;;7.80;;
20894;SDS011;10607;42.066;24.742;2023-05-07T05:40:43;11.32;;;7.47;;
20894;SDS011;10607;42.066;24.742;2023-05-07T05:43:08;9.65;;;7.07;;
20894;SDS011;10607;42.066;24.742;2023-05-07T05:45:34;9.13;;;6.82;;
20894;SDS011;10607;42.066;24.742;2023-05-07T05:47:59;11.98;;;7.97;;
20894;SDS011;10607;42.066;24.742;2023-05-07T05:50:25;10.43;;;6.97;;
20894;SDS011;10607;42.066;24.742;2023-05-07T05:52:50;11.35;;;7.70;;
20894;SDS011;10607;42.066;24.742;2023-05-07T05:55:15;8.40;;;6.15;;
20894;SDS011;10607;42.066;24.742;2023-05-07T05:57:41;11.15;;;6.30;;
20894;SDS011;10607;42.066;24.742;2023-05-07T06:00:06;10.20;;;6.72;;
20894;SDS011;10607;42.066;24.742;2023-05-07T06:02:32;9.32;;;6.85;;
20894;SDS011;10607;42.066;24.742;2023-05-07T06:04:58;10.90;;;7.00;;
20894;SDS011;10607;42.066;24.742;2023-05-07T06:07:23;10.55;;;6.22;;
20894;SDS011;10607;42.066;24.742;2023-05-07T06:09:48;11.32;;;6.07;;
20894;SDS011;10607;42.066;24.742;2023-05-07T06:12:13;9.73;;;7.13;;
20894;SDS011;10607;42.066;24.742;2023-05-07T06:14:39;8.60;;;6.43;;
20894;SDS011;10607;42.066;24.742;2023-05-07T06:17:06;9.43;;;6.70;;
20894;SDS011;10607;42.066;24.742;2023-05-07T06:19:31;10.10;;;6.95;;
20894;SDS011;10607;42.066;24.742;2023-05-07T06:21:57;8.57;;;6.15;;
20894;SDS011;10607;42.066;24.742;2023-05-07T06:24:22;9.57;;;6.05;;
20894;SDS011;10607;42.066;24.742;2023-05-07T06:26:48;10.52;;;5.78;;
20894;SDS011;10607;42.066;24.742;2023-05-07T06:29:13;10.07;;;5.78;;
20894;SDS011;10607;42.066;24.742;2023-05-07T06:31:38;11.88;;;6.68;;
20894;SDS011;10607;42.066;24.742;2023-05-07T06:34:04;8.27;;;5.97;;
20894;SDS011;10607;42.066;24.742;2023-05-07T06:36:29;7.97;;;5.93;;
20894;SDS011;10607;42.066;24.742;2023-05-07T06:38:55;8.52;;;5.88;;
20894;SDS011;10607;42.066;24.742;2023-05-07T06:41:20;12.07;;;6.22;;
20894;SDS011;10607;42.066;24.742;2023-05-07T06:43:45;10.45;;;6.30;;
20894;SDS011;10607;42.066;24.742;2023-05-07T06:46:11;9.95;;;6.63;;
20894;SDS011;10607;42.066;24.742;2023-05-07T06:48:36;10.02;;;5.65;;
20894;SDS011;10607;42.066;24.742;2023-05-07T06:51:01;9.68;;;6.47;;
20894;SDS011;10607;42.066;24.742;2023-05-07T06:53:27;12.73;;;6.18;;
20894;SDS011;10607;42.066;24.742;2023-05-07T06:55:53;13.45;;;5.95;;
20894;SDS011;10607;42.066;24.742;2023-05-07T06:58:19;7.63;;;6.15;;
20894;SDS011;10607;42.066;24.742;2023-05-07T07:00:44;10.18;;;5.95;;
20894;SDS011;10607;42.066;24.742;2023-05-07T07:03:10;11.15;;;6.50;;
20894;SDS011;10607;42.066;24.742;2023-05-07T07:05:36;11.32;;;6.20;;
20894;SDS011;10607;42.066;24.742;2023-05-07T07:08:01;11.57;;;6.38;;
20894;SDS011;10607;42.066;24.742;2023-05-07T07:10:26;9.57;;;6.18;;
20894;SDS011;10607;42.066;24.742;2023-05-07T07:12:51;8.57;;;5.70;;
20894;SDS011;10607;42.066;24.742;2023-05-07T07:15:17;8.02;;;5.50;;
20894;SDS011;10607;42.066;24.742;2023-05-07T07:17:43;7.57;;;5.00;;
20894;SDS011;10607;42.066;24.742;2023-05-07T07:20:08;7.10;;;5.32;;
20894;SDS011;10607;42.066;24.742;2023-05-07T07:22:34;7.55;;;5.40;;
20894;SDS011;10607;42.066;24.742;2023-05-07T07:24:59;7.95;;;5.55;;
20894;SDS011;10607;42.066;24.742;2023-05-07T07:27:24;6.80;;;4.65;;
20894;SDS011;10607;42.066;24.742;2023-05-07T07:29:50;6.90;;;5.38;;
20894;SDS011;10607;42.066;24.742;2023-05-07T07:32:15;10.00;;;5.57;;
20894;SDS011;10607;42.066;24.742;2023-05-07T07:34:40;9.18;;;5.75;;
20894;SDS011;10607;42.066;24.742;2023-05-07T07:37:06;10.40;;;6.03;;
20894;SDS011;10607;42.066;24.742;2023-05-07T07:39:31;7.97;;;5.22;;
20894;SDS011;10607;42.066;24.742;2023-05-07T07:41:57;8.90;;;5.43;;
20894;SDS011;10607;42.066;24.742;2023-05-07T07:44:22;9.52;;;5.72;;
20894;SDS011;10607;42.066;24.742;2023-05-07T07:46:47;7.47;;;5.60;;
20894;SDS011;10607;42.066;24.742;2023-05-07T07:49:12;9.73;;;6.07;;
20894;SDS011;10607;42.066;24.742;2023-05-07T07:51:38;9.57;;;5.30;;
20894;SDS011;10607;42.066;24.742;2023-05-07T07:54:03;10.38;;;5.68;;
20894;SDS011;10607;42.066;24.742;2023-05-07T07:56:29;9.27;;;5.40;;
20894;SDS011;10607;42.066;24.742;2023-05-07T07:58:54;13.00;;;6.25;;
20894;SDS011;10607;42.066;24.742;2023-05-07T08:01:19;11.20;;;5.53;;
20894;SDS011;10607;42.066;24.742;2023-05-07T08:03:45;7.35;;;5.40;;
20894;SDS011;10607;42.066;24.742;2023-05-07T08:06:10;6.82;;;5.25;;
20894;SDS011;10607;42.066;24.742;2023-05-07T08:08:35;6.63;;;4.90;;
20894;SDS011;10607;42.066;24.742;2023-05-07T08:11:01;9.18;;;5.65;;
20894;SDS011;10607;42.066;24.742;2023-05-07T08:13:26;10.40;;;5.45;;
20894;SDS011;10607;42.066;24.742;2023-05-07T08:15:51;7.47;;;4.68;;
20894;SDS011;10607;42.066;24.742;2023-05-07T08:18:17;8.85;;;5.25;;
20894;SDS011;10607;42.066;24.742;2023-05-07T08:20:42;13.10;;;4.70;;
20894;SDS011;10607;42.066;24.742;2023-05-07T08:23:08;5.85;;;4.30;;
20894;SDS011;10607;42.066;24.742;2023-05-07T08:25:33;9.65;;;4.10;;
20894;SDS011;10607;42.066;24.742;2023-05-07T08:27:59;8.10;;;5.15;;
20894;SDS011;10607;42.066;24.742;2023-05-07T08:30:24;12.65;;;6.60;;
20894;SDS011;10607;42.066;24.742;2023-05-07T08:32:50;14.98;;;6.53;;
20894;SDS011;10607;42.066;24.742;2023-05-07T08:35:15;16.20;;;6.55;;
20894;SDS011;10607;42.066;24.742;2023-05-07T08:37:41;16.67;;;7.38;;
20894;SDS011;10607;42.066;24.742;2023-05-07T08:40:07;10.63;;;4.65;;
20894;SDS011;10607;42.066;24.742;2023-05-07T08:42:34;9.07;;;4.65;;
20894;SDS011;10607;42.066;24.742;2023-05-07T08:45:00;13.95;;;5.95;;
20894;SDS011;10607;42.066;24.742;2023-05-07T08:47:40;13.20;;;4.63;;
20894;SDS011;10607;42.066;24.742;2023-05-07T08:50:05;8.85;;;4.05;;
20894;SDS011;10607;42.066;24.742;2023-05-07T08:52:31;8.10;;;3.90;;
20894;SDS011;10607;42.066;24.742;2023-05-07T08:54:56;12.48;;;3.97;;
20894;SDS011;10607;42.066;24.742;2023-05-07T08:57:22;7.43;;;4.40;;
20894;SDS011;10607;42.066;24.742;2023-05-07T08:59:49;7.28;;;3.58;;
20894;SDS011;10607;42.066;24.742;2023-05-07T09:02:15;5.65;;;3.63;;
20894;SDS011;10607;42.066;24.742;2023-05-07T09:04:41;9.93;;;3.53;;
20894;SDS011;10607;42.066;24.742;2023-05-07T09:07:06;9.65;;;4.05;;
20894;SDS011;10607;42.066;24.742;2023-05-07T09:09:32;12.75;;;3.75;;
20894;SDS011;10607;42.066;24.742;2023-05-07T09:11:57;11.77;;;3.58;;
20894;SDS011;10607;42.066;24.742;2023-05-07T09:14:27;5.10;;;2.63;;
20894;SDS011;10607;42.066;24.742;2023-05-07T09:16:52;8.10;;;3.30;;
20894;SDS011;10607;42.066;24.742;2023-05-07T09:19:22;6.28;;;3.17;;
20894;SDS011;10607;42.066;24.742;2023-05-07T09:21:47;7.03;;;3.20;;
20894;SDS011;10607;42.066;24.742;2023-05-07T09:24:14;6.70;;;3.25;;
20894;SDS011;10607;42.066;24.742;2023-05-07T09:26:40;10.80;;;3.65;;
20894;SDS011;10607;42.066;24.742;2023-05-07T09:29:05;9.85;;;2.95;;
20894;SDS011;10607;42.066;24.742;2023-05-07T09:31:31;2.92;;;2.63;;
20894;SDS011;10607;42.066;24.742;2023-05-07T09:33:57;5.57;;;2.60;;
20894;SDS011;10607;42.066;24.742;2023-05-07T09:36:22;7.38;;;2.80;;
20894;SDS011;10607;42.066;24.742;2023-05-07T09:38:47;4.80;;;2.65;;
20894;SDS011;10607;42.066;24.742;2023-05-07T09:41:14;5.70;;;2.50;;
20894;SDS011;10607;42.066;24.742;2023-05-07T09:43:40;6.00;;;2.35;;
20894;SDS011;10607;42.066;24.742;2023-05-07T09:46:06;6.90;;;2.50;;
20894;SDS011;10607;42.066;24.742;2023-05-07T09:48:34;5.85;;;2.90;;
20894;SDS011;10607;42.066;24.742;2023-05-07T09:51:01;6.15;;;2.42;;
20894;SDS011;10607;42.066;24.742;2023-05-07T09:53:27;4.78;;;2.45;;
20894;SDS011;10607;42.066;24.742;2023-05-07T09:55:54;4.93;;;2.15;;
20894;SDS011;10607;42.066;24.742;2023-05-07T09:58:20;4.13;;;2.20;;
20894;SDS011;10607;42.066;24.742;2023-05-07T10:00:47;3.63;;;2.00;;
20894;SDS011;10607;42.066;24.742;2023-05-07T10:03:14;5.38;;;2.30;;
20894;SDS011;10607;42.066;24.742;2023-05-07T10:05:40;8.77;;;3.28;;
20894;SDS011;10607;42.066;24.742;2023-05-07T10:08:06;5.10;;;2.70;;
20894;SDS011;10607;42.066;24.742;2023-05-07T10:10:32;7.78;;;2.70;;
20894;SDS011;10607;42.066;24.742;2023-05-07T10:12:58;5.65;;;2.50;;
20894;SDS011;10607;42.066;24.742;2023-05-07T10:15:23;4.75;;;3.33;;
20894;SDS011;10607;42.066;24.742;2023-05-07T10:17:50;4.78;;;2.67;;
20894;SDS011;10607;42.066;24.742;2023-05-07T10:20:16;6.45;;;3.10;;
20894;SDS011;10607;42.066;24.742;2023-05-07T10:22:43;5.22;;;2.70;;
20894;SDS011;10607;42.066;24.742;2023-05-07T10:25:14;6.05;;;2.45;;
20894;SDS011;10607;42.066;24.742;2023-05-07T10:27:40;3.80;;;2.25;;
20894;SDS011;10607;42.066;24.742;2023-05-07T10:32:51;9.02;;;2.38;;
20894;SDS011;10607;42.066;24.742;2023-05-07T10:35:19;7.18;;;2.63;;
20894;SDS011;10607;42.066;24.742;2023-05-07T10:37:45;8.80;;;2.95;;
20894;SDS011;10607;42.066;24.742;2023-05-07T10:40:11;8.00;;;2.88;;
20894;SDS011;10607;42.066;24.742;2023-05-07T10:42:37;7.13;;;3.10;;
20894;SDS011;10607;42.066;24.742;2023-05-07T10:45:14;4.40;;;2.70;;
20894;SDS011;10607;42.066;24.742;2023-05-07T10:50:25;5.50;;;2.10;;
20894;SDS011;10607;42.066;24.742;2023-05-07T10:53:33;3.80;;;2.58;;
20894;SDS011;10607;42.066;24.742;2023-05-07T10:55:39;4.68;;;3.10;;
20894;SDS011;10607;42.066;24.742;2023-05-07T11:00:49;7.03;;;2.80;;
20894;SDS011;10607;42.066;24.742;2023-05-07T11:03:14;3.78;;;2.28;;
20894;SDS011;10607;42.066;24.742;2023-05-07T11:05:40;6.97;;;2.38;;
20894;SDS011;10607;42.066;24.742;2023-05-07T11:08:06;7.07;;;2.30;;
20894;SDS011;10607;42.066;24.742;2023-05-07T11:13:15;6.15;;;2.10;;
20894;SDS011;10607;42.066;24.742;2023-05-07T11:15:42;5.72;;;2.75;;
20894;SDS011;10607;42.066;24.742;2023-05-07T11:18:08;3.85;;;2.63;;
20894;SDS011;10607;42.066;24.742;2023-05-07T11:20:53;5.60;;;2.47;;
20894;SDS011;10607;42.066;24.742;2023-05-07T11:24:04;7.35;;;2.70;;
20894;SDS011;10607;42.066;24.742;2023-05-07T11:26:09;5.38;;;2.33;;
20894;SDS011;10607;42.066;24.742;2023-05-07T11:28:38;5.50;;;2.20;;
20894;SDS011;10607;42.066;24.742;2023-05-07T11:31:05;3.47;;;2.40;;
20894;SDS011;10607;42.066;24.742;2023-05-07T11:33:30;4.53;;;1.95;;
20894;SDS011;10607;42.066;24.742;2023-05-07T11:35:56;2.80;;;2.50;;
20894;SDS011;10607;42.066;24.742;2023-05-07T11:38:22;6.82;;;2.33;;
20894;SDS011;10607;42.066;24.742;2023-05-07T11:43:16;4.07;;;2.15;;
20894;SDS011;10607;42.066;24.742;2023-05-07T11:45:41;3.05;;;2.10;;
20894;SDS011;10607;42.066;24.742;2023-05-07T11:48:07;6.10;;;2.08;;
20894;SDS011;10607;42.066;24.742;2023-05-07T11:50:32;6.97;;;2.00;;
20894;SDS011;10607;42.066;24.742;2023-05-07T11:52:57;4.47;;;2.20;;
20894;SDS011;10607;42.066;24.742;2023-05-07T11:55:23;5.30;;;1.77;;
20894;SDS011;10607;42.066;24.742;2023-05-07T11:57:49;5.60;;;2.38;;
20894;SDS011;10607;42.066;24.742;2023-05-07T12:00:15;5.50;;;2.50;;
20894;SDS011;10607;42.066;24.742;2023-05-07T12:02:41;3.35;;;2.03;;
20894;SDS011;10607;42.066;24.742;2023-05-07T12:05:07;4.90;;;2.17;;
20894;SDS011;10607;42.066;24.742;2023-05-07T12:07:35;7.22;;;2.40;;
20894;SDS011;10607;42.066;24.742;2023-05-07T12:10:04;9.60;;;2.60;;
20894;SDS011;10607;42.066;24.742;2023-05-07T12:12:29;7.10;;;2.92;;
20894;SDS011;10607;42.066;24.742;2023-05-07T12:14:55;7.05;;;2.63;;
20894;SDS011;10607;42.066;24.742;2023-05-07T12:17:20;4.38;;;2.05;;
20894;SDS011;10607;42.066;24.742;2023-05-07T12:19:46;3.10;;;2.00;;
20894;SDS011;10607;42.066;24.742;2023-05-07T12:22:11;8.02;;;2.30;;
20894;SDS011;10607;42.066;24.742;2023-05-07T12:27:08;5.57;;;2.63;;
20894;SDS011;10607;42.066;24.742;2023-05-07T12:29:34;6.55;;;2.25;;
20894;SDS011;10607;42.066;24.742;2023-05-07T12:31:59;6.00;;;2.20;;
20894;SDS011;10607;42.066;24.742;2023-05-07T12:34:24;3.00;;;2.20;;
20894;SDS011;10607;42.066;24.742;2023-05-07T12:36:50;4.88;;;2.40;;
20894;SDS011;10607;42.066;24.742;2023-05-07T12:39:15;5.85;;;2.25;;
20894;SDS011;10607;42.066;24.742;2023-05-07T12:41:56;3.03;;;2.17;;
20894;SDS011;10607;42.066;24.742;2023-05-07T12:44:22;3.53;;;2.35;;
20894;SDS011;10607;42.066;24.742;2023-05-07T12:46:47;3.63;;;1.98;;
20894;SDS011;10607;42.066;24.742;2023-05-07T12:49:12;6.28;;;2.55;;
20894;SDS011;10607;42.066;24.742;2023-05-07T12:51:38;8.68;;;2.08;;
20894;SDS011;10607;42.066;24.742;2023-05-07T12:54:03;6.28;;;2.42;;
20894;SDS011;10607;42.066;24.742;2023-05-07T12:56:30;8.38;;;2.08;;
20894;SDS011;10607;42.066;24.742;2023-05-07T12:58:57;3.03;;;1.95;;
20894;SDS011;10607;42.066;24.742;2023-05-07T13:01:28;3.45;;;1.85;;
20894;SDS011;10607;42.066;24.742;2023-05-07T13:03:53;4.93;;;2.47;;
20894;SDS011;10607;42.066;24.742;2023-05-07T13:06:19;4.00;;;2.22;;
20894;SDS011;10607;42.066;24.742;2023-05-07T13:08:44;5.63;;;2.25;;
20894;SDS011;10607;42.066;24.742;2023-05-07T13:11:09;5.72;;;3.42;;
20894;SDS011;10607;42.066;24.742;2023-05-07T13:13:35;12.38;;;6.97;;
20894;SDS011;10607;42.066;24.742;2023-05-07T13:16:02;7.15;;;3.15;;
20894;SDS011;10607;42.066;24.742;2023-05-07T13:18:29;9.60;;;2.55;;
20894;SDS011;10607;42.066;24.742;2023-05-07T13:20:55;6.63;;;2.97;;
20894;SDS011;10607;42.066;24.742;2023-05-07T13:23:20;6.55;;;2.55;;
20894;SDS011;10607;42.066;24.742;2023-05-07T13:25:45;5.22;;;2.63;;
20894;SDS011;10607;42.066;24.742;2023-05-07T13:28:11;9.05;;;5.53;;
20894;SDS011;10607;42.066;24.742;2023-05-07T13:30:36;6.38;;;2.85;;
20894;SDS011;10607;42.066;24.742;2023-05-07T13:33:02;4.68;;;2.90;;
20894;SDS011;10607;42.066;24.742;2023-05-07T13:35:27;7.72;;;3.72;;
20894;SDS011;10607;42.066;24.742;2023-05-07T13:37:53;12.93;;;3.65;;
20894;SDS011;10607;42.066;24.742;2023-05-07T13:40:19;10.00;;;4.75;;
20894;SDS011;10607;42.066;24.742;2023-05-07T13:42:45;6.30;;;2.95;;
20894;SDS011;10607;42.066;24.742;2023-05-07T13:45:10;5.65;;;2.78;;
20894;SDS011;10607;42.066;24.742;2023-05-07T13:47:35;5.53;;;3.13;;
20894;SDS011;10607;42.066;24.742;2023-05-07T13:50:01;6.25;;;2.90;;
20894;SDS011;10607;42.066;24.742;2023-05-07T13:52:26;6.30;;;2.20;;
20894;SDS011;10607;42.066;24.742;2023-05-07T13:54:51;4.18;;;2.35;;
20894;SDS011;10607;42.066;24.742;2023-05-07T13:57:17;4.07;;;2.22;;
20894;SDS011;10607;42.066;24.742;2023-05-07T13:59:42;5.93;;;2.40;;
20894;SDS011;10607;42.066;24.742;2023-05-07T14:02:08;7.38;;;2.65;;
20894;SDS011;10607;42.066;24.742;2023-05-07T14:04:34;3.88;;;2.30;;
20894;SDS011;10607;42.066;24.742;2023-05-07T14:06:59;7.38;;;2.15;;
20894;SDS011;10607;42.066;24.742;2023-05-07T14:09:25;4.57;;;2.55;;
20894;SDS011;10607;42.066;24.742;2023-05-07T14:11:50;4.22;;;2.20;;
20894;SDS011;10607;42.066;24.742;2023-05-07T14:14:19;6.57;;;2.38;;
20894;SDS011;10607;42.066;24.742;2023-05-07T14:16:44;5.13;;;2.05;;
20894;SDS011;10607;42.066;24.742;2023-05-07T14:19:10;6.65;;;2.83;;
20894;SDS011;10607;42.066;24.742;2023-05-07T14:21:35;4.30;;;2.30;;
20894;SDS011;10607;42.066;24.742;2023-05-07T14:24:00;5.60;;;2.00;;
20894;SDS011;10607;42.066;24.742;2023-05-07T14:26:26;11.85;;;2.13;;
20894;SDS011;10607;42.066;24.742;2023-05-07T14:28:52;6.07;;;2.15;;
20894;SDS011;10607;42.066;24.742;2023-05-07T14:31:17;8.27;;;2.30;;
20894;SDS011;10607;42.066;24.742;2023-05-07T14:33:43;3.75;;;2.20;;
20894;SDS011;10607;42.066;24.742;2023-05-07T14:36:08;2.15;;;1.70;;
20894;SDS011;10607;42.066;24.742;2023-05-07T14:38:33;7.70;;;2.08;;
20894;SDS011;10607;42.066;24.742;2023-05-07T14:40:58;8.93;;;1.85;;
20894;SDS011;10607;42.066;24.742;2023-05-07T14:43:24;4.38;;;1.98;;
20894;SDS011;10607;42.066;24.742;2023-05-07T14:45:49;3.20;;;1.80;;
20894;SDS011;10607;42.066;24.742;2023-05-07T14:48:15;2.55;;;1.70;;